Time;durP1;ratioP1;P1;durP2;ratioP2;P2;SDS_P1;SDS_P2;PMS_P1;PMS_P2;Temp;Humidity;BMP_temperature;BMP_pressure;BME280_temperature;BME280_humidity;BME280_pressure;Samples;Min_cycle;Max_cycle;Signal;HPM_P1;HPM_P2
2021/03/10 00:01:33;;;;;;;2.43;2.23;;;19.60;47.00;;;;;;10453778;28;20216;-22
2021/03/10 00:06:56;;;;;;;2.43;2.23;;;19.50;46.90;;;;;;10453872;28;20256;-22
2021/03/10 00:12:17;;;;;;;3.83;2.30;;;19.60;46.90;;;;;;10453315;28;20217;-22
2021/03/10 00:17:41;;;;;;;2.80;2.50;;;19.60;46.90;;;;;;10467440;28;20207;-21
2021/03/10 00:23:04;;;;;;;2.13;1.93;;;19.50;47.00;;;;;;10453049;28;20273;-22
2021/03/10 00:28:25;;;;;;;2.70;2.37;;;19.50;47.00;;;;;;10452891;28;20217;-22
2021/03/10 00:33:47;;;;;;;2.83;2.23;;;19.60;47.00;;;;;;10452833;28;20588;-22
2021/03/10 00:39:09;;;;;;;2.97;2.20;;;19.50;46.90;;;;;;10452506;28;20185;-22
2021/03/10 00:44:31;;;;;;;2.60;2.40;;;19.60;47.00;;;;;;10452429;28;20228;-23
2021/03/10 00:49:53;;;;;;;2.40;2.20;;;19.50;47.10;;;;;;10450896;28;20714;-22
2021/03/10 00:55:16;;;;;;;2.83;2.43;;;19.50;47.10;;;;;;10453497;28;20575;-23
2021/03/10 01:00:38;;;;;;;2.40;2.10;;;19.50;47.10;;;;;;10450636;28;20687;-23
2021/03/10 01:05:59;;;;;;;2.50;2.30;;;19.50;47.10;;;;;;10451892;28;20855;-22
2021/03/10 01:11:22;;;;;;;2.50;2.30;;;19.40;47.20;;;;;;10451603;28;20560;-22
2021/03/10 01:16:44;;;;;;;1.97;1.87;;;19.40;47.20;;;;;;10475939;28;20560;-22
2021/03/10 01:22:05;;;;;;;3.10;2.23;;;19.40;47.10;;;;;;10492808;28;20216;-21
2021/03/10 01:27:28;;;;;;;2.83;2.53;;;19.50;47.20;;;;;;10492952;28;20216;-21
2021/03/10 01:32:49;;;;;;;2.13;1.93;;;19.40;47.20;;;;;;10494887;28;20622;-21
2021/03/10 01:38:11;;;;;;;2.73;2.47;;;19.40;47.30;;;;;;10501866;28;20188;-21
2021/03/10 01:43:33;;;;;;;2.60;2.40;;;19.40;47.30;;;;;;10499771;28;20228;-21
2021/03/10 01:48:55;;;;;;;2.50;2.30;;;19.40;47.40;;;;;;10500301;28;20220;-21
2021/03/10 01:54:17;;;;;;;2.93;2.67;;;19.40;47.20;;;;;;10491037;28;20224;-21
2021/03/10 01:59:41;;;;;;;2.70;2.50;;;19.40;47.20;;;;;;10500158;28;20200;-21
2021/03/10 02:05:03;;;;;;;2.63;2.20;;;19.40;47.30;;;;;;10481545;28;20212;-21
2021/03/10 02:10:32;;;;;;;2.83;2.13;;;19.40;47.30;;;;;;10490124;28;20243;-22
2021/03/10 02:16:01;;;;;;;2.30;2.10;;;19.40;47.30;;;;;;10478108;28;20200;-21
2021/03/10 02:21:30;;;;;;;2.30;2.10;;;19.40;47.30;;;;;;10498335;28;20274;-21
2021/03/10 02:27:39;;;;;;;2.60;2.40;;;19.40;47.30;;;;;;10499171;28;20208;-21
2021/03/10 02:33:04;;;;;;;2.80;2.47;;;19.30;47.30;;;;;;10329883;28;20225;-21
2021/03/10 02:38:27;;;;;;;2.73;2.40;;;19.40;47.30;;;;;;10490519;28;20196;-21
2021/03/10 02:43:52;;;;;;;2.73;2.40;;;19.40;47.30;;;;;;10497417;28;20311;-21
2021/03/10 02:49:15;;;;;;;2.60;2.40;;;19.40;47.30;;;;;;10497667;28;20227;-21
2021/03/10 02:54:38;;;;;;;2.50;2.30;;;19.30;47.40;;;;;;10485117;28;20625;-21
2021/03/10 03:00:08;;;;;;;2.70;2.40;;;19.40;47.40;;;;;;10498456;28;20571;-21
2021/03/10 03:05:29;;;;;;;2.37;2.17;;;19.40;47.40;;;;;;10498469;28;20193;-21
2021/03/10 03:10:52;;;;;;;2.43;2.20;;;19.40;47.40;;;;;;10497754;28;20204;-21
2021/03/10 03:16:17;;;;;;;2.00;1.90;;;19.30;47.40;;;;;;10476458;28;20193;-21
2021/03/10 03:21:40;;;;;;;2.60;2.40;;;19.30;47.50;;;;;;10455500;28;20213;-21
2021/03/10 03:27:03;;;;;;;3.20;2.60;;;19.30;47.50;;;;;;10455162;28;20588;-21
2021/03/10 03:32:27;;;;;;;2.50;2.30;;;19.30;47.40;;;;;;10455216;28;20592;-21
2021/03/10 03:37:51;;;;;;;2.20;2.00;;;19.30;47.50;;;;;;10455255;28;20272;-21
2021/03/10 03:43:13;;;;;;;3.13;2.60;;;19.20;47.50;;;;;;10455406;28;20260;-22
2021/03/10 03:48:35;;;;;;;2.40;2.20;;;19.20;47.50;;;;;;10454556;28;20215;-22
2021/03/10 03:53:58;;;;;;;2.40;2.20;;;19.30;47.50;;;;;;10473938;28;20212;-21
2021/03/10 03:59:20;;;;;;;2.77;2.40;;;19.30;47.50;;;;;;10474188;28;20251;-22
2021/03/10 04:04:42;;;;;;;2.40;2.20;;;19.20;47.50;;;;;;10495323;28;20212;-22
2021/03/10 04:10:05;;;;;;;2.50;2.30;;;19.20;47.50;;;;;;10474242;28;20217;-21
2021/03/10 04:15:29;;;;;;;3.00;2.70;;;19.30;47.50;;;;;;10467070;28;20196;-22
2021/03/10 04:20:51;;;;;;;2.70;2.40;;;19.30;47.50;;;;;;10493307;28;20213;-22
2021/03/10 04:26:13;;;;;;;2.70;2.50;;;19.20;47.40;;;;;;10493157;28;20709;-22
2021/03/10 04:31:35;;;;;;;2.43;2.23;;;19.30;47.60;;;;;;10492915;28;20216;-22
2021/03/10 04:36:57;;;;;;;3.30;2.43;;;19.30;47.60;;;;;;10493302;28;20188;-21
2021/03/10 04:42:19;;;;;;;2.50;2.30;;;19.30;47.40;;;;;;10492979;28;20220;-21
2021/03/10 04:47:40;;;;;;;2.67;2.47;;;19.30;47.20;;;;;;10492902;28;20212;-21
2021/03/10 04:53:03;;;;;;;2.97;2.13;;;19.40;47.10;;;;;;10480037;28;20227;-21
2021/03/10 04:58:25;;;;;;;2.90;2.70;;;19.50;47.10;;;;;;10493154;28;20544;-21
2021/03/10 05:03:46;;;;;;;2.13;1.93;;;19.50;47.00;;;;;;10459376;28;20315;-22
2021/03/10 05:09:09;;;;;;;2.60;2.40;;;19.50;46.90;;;;;;10450889;28;20733;-21
2021/03/10 05:14:31;;;;;;;2.67;2.47;;;19.50;46.90;;;;;;10457523;28;20216;-21
2021/03/10 05:19:52;;;;;;;2.67;2.47;;;19.50;46.90;;;;;;10492949;28;20200;-21
2021/03/10 05:25:15;;;;;;;2.57;2.23;;;19.60;46.80;;;;;;10492028;28;20196;-21
2021/03/10 05:30:36;;;;;;;3.27;2.97;;;19.60;46.70;;;;;;10492824;28;20226;-21
2021/03/10 05:35:58;;;;;;;2.57;2.20;;;19.60;46.60;;;;;;10491727;28;20280;-21
2021/03/10 05:41:21;;;;;;;2.93;2.40;;;19.70;46.60;;;;;;10490902;28;20703;-21
2021/03/10 05:46:42;;;;;;;2.53;2.33;;;19.70;46.60;;;;;;10491385;28;20218;-21
2021/03/10 05:52:06;;;;;;;2.37;2.17;;;19.70;46.50;;;;;;10478182;28;20742;-21
2021/03/10 05:57:28;;;;;;;2.77;2.40;;;19.70;46.60;;;;;;10411780;28;20197;-21
2021/03/10 06:02:51;;;;;;;2.60;2.40;;;19.70;46.60;;;;;;10448246;28;20228;-21
2021/03/10 06:08:15;;;;;;;2.63;2.43;;;19.70;46.60;;;;;;10491748;28;20219;-21
2021/03/10 06:13:44;;;;;;;2.77;2.33;;;19.70;46.50;;;;;;10490822;28;20220;-21
2021/03/10 06:19:06;;;;;;;2.43;2.23;;;19.70;46.50;;;;;;10411822;28;20192;-20
2021/03/10 06:24:32;;;;;;;2.50;2.30;;;19.80;47.00;;;;;;10416267;28;20222;-20
2021/03/10 06:29:58;;;;;;;2.97;2.43;;;19.80;46.40;;;;;;10412504;28;20307;-20
2021/03/10 06:35:25;;;;;;;2.50;2.30;;;19.80;46.40;;;;;;10410477;28;20277;-21
2021/03/10 06:40:51;;;;;;;3.13;2.70;;;19.80;46.50;;;;;;10412919;28;20222;-21
2021/03/10 06:46:15;;;;;;;2.60;2.40;;;19.70;46.50;;;;;;10414682;28;20193;-22
2021/03/10 06:51:37;;;;;;;3.13;2.83;;;19.70;46.50;;;;;;10439319;28;20213;-21
2021/03/10 06:57:00;;;;;;;2.57;2.37;;;19.80;46.40;;;;;;10495951;28;20195;-21
2021/03/10 07:02:26;;;;;;;2.80;2.60;;;19.80;46.50;;;;;;10497701;28;20219;-22
2021/03/10 07:07:47;;;;;;;2.30;2.10;;;19.70;46.70;;;;;;10497681;28;20212;-21
2021/03/10 07:13:09;;;;;;;4.20;2.60;;;19.70;46.70;;;;;;10461171;28;20700;-21
2021/03/10 07:18:33;;;;;;;2.73;2.53;;;19.80;46.80;;;;;;10494057;28;20200;-21
2021/03/10 07:23:57;;;;;;;2.80;2.20;;;19.80;46.80;;;;;;10466193;28;20225;-22
2021/03/10 07:29:20;;;;;;;4.07;2.40;;;19.80;46.90;;;;;;10456230;28;20797;-22
2021/03/10 07:34:42;;;;;;;3.87;2.30;;;19.90;46.80;;;;;;10489563;28;20915;-20
2021/03/10 07:40:12;;;;;;;2.87;2.60;;;19.90;46.80;;;;;;10488956;28;20595;-21
2021/03/10 07:45:43;;;;;;;2.77;2.40;;;20.00;46.80;;;;;;10447245;28;20579;-22
2021/03/10 07:51:05;;;;;;;2.87;2.43;;;20.10;46.80;;;;;;10454956;28;20227;-22
2021/03/10 07:56:29;;;;;;;2.13;1.80;;;20.10;46.70;;;;;;10482838;28;20202;-22
2021/03/10 08:02:01;;;;;;;2.80;2.13;;;20.10;46.80;;;;;;10448186;28;20263;-21
2021/03/10 08:07:25;;;;;;;2.37;1.90;;;20.10;46.80;;;;;;10449443;28;20223;-21
2021/03/10 08:12:47;;;;;;;2.80;2.10;;;20.10;46.80;;;;;;10453336;28;20229;-21
2021/03/10 08:18:09;;;;;;;2.00;1.90;;;20.10;46.90;;;;;;10473840;28;20206;-22
2021/03/10 08:23:32;;;;;;;3.57;2.17;;;20.10;47.50;;;;;;10445478;28;20271;-21
2021/03/10 08:28:53;;;;;;;2.47;2.20;;;20.10;46.80;;;;;;10445332;28;20217;-22
2021/03/10 08:34:17;;;;;;;2.57;2.07;;;20.20;46.70;;;;;;10444929;28;20325;-22
2021/03/10 08:39:42;;;;;;;2.07;1.80;;;20.10;46.80;;;;;;10444480;28;20648;-23
2021/03/10 08:45:06;;;;;;;2.83;2.17;;;20.10;47.00;;;;;;10444794;28;20201;-21
2021/03/10 08:50:30;;;;;;;2.70;2.50;;;20.10;46.90;;;;;;10448152;28;20296;-21
2021/03/10 08:55:52;;;;;;;3.80;2.70;;;20.20;46.90;;;;;;10477587;28;20287;-21
2021/03/10 09:01:14;;;;;;;2.70;2.50;;;20.20;46.80;;;;;;10443255;28;20746;-21
2021/03/10 09:06:37;;;;;;;2.70;2.50;;;20.20;46.90;;;;;;10450161;28;20200;-21
2021/03/10 09:12:00;;;;;;;2.83;2.50;;;20.20;46.90;;;;;;10467200;28;20228;-21
2021/03/10 09:17:30;;;;;;;2.93;2.40;;;20.20;46.80;;;;;;10470585;28;20671;-21
2021/03/10 09:22:52;;;;;;;2.93;2.23;;;20.30;46.80;;;;;;10446740;28;20237;-27
2021/03/10 09:28:16;;;;;;;2.40;2.20;;;20.20;46.90;;;;;;10478771;28;20288;-22
2021/03/10 09:33:40;;;;;;;2.47;2.27;;;20.20;46.90;;;;;;10491174;28;20270;-20
2021/03/10 09:39:05;;;;;;;3.37;2.33;;;20.30;46.90;;;;;;10486179;28;20662;-21
2021/03/10 09:44:28;;;;;;;2.27;2.07;;;20.30;46.90;;;;;;10485790;28;20250;-21
2021/03/10 09:49:52;;;;;;;2.33;2.13;;;20.30;47.00;;;;;;10465235;28;20226;-21
2021/03/10 09:55:19;;;;;;;2.30;2.10;;;20.20;46.90;;;;;;10490126;28;20287;-22
2021/03/10 10:00:43;;;;;;;2.73;2.20;;;20.30;46.90;;;;;;10493183;28;20220;-22
2021/03/10 10:06:06;;;;;;;2.40;2.20;;;20.30;46.90;;;;;;10492521;28;20209;-21
2021/03/10 10:11:27;;;;;;;2.70;2.27;;;20.30;46.80;;;;;;10456290;28;20855;-21
2021/03/10 10:16:50;;;;;;;2.60;2.40;;;20.40;46.70;;;;;;10476384;28;20188;-22
2021/03/10 10:22:12;;;;;;;1.73;1.63;;;20.40;46.60;;;;;;10409960;28;20756;-21
2021/03/10 10:27:33;;;;;;;2.90;2.37;;;20.30;46.80;;;;;;10409627;28;20221;-21
2021/03/10 10:32:56;;;;;;;2.83;2.20;;;20.30;47.00;;;;;;10408712;28;20726;-22
2021/03/10 10:38:17;;;;;;;2.80;2.07;;;20.30;46.90;;;;;;10409261;28;20250;-21
2021/03/10 10:43:39;;;;;;;2.47;1.97;;;20.30;46.80;;;;;;10417324;28;20286;-22
2021/03/10 10:49:01;;;;;;;1.93;1.83;;;20.40;46.90;;;;;;10463271;28;20228;-21
2021/03/10 10:54:24;;;;;;;2.10;1.90;;;20.30;47.00;;;;;;10414951;28;20751;-21
2021/03/10 10:59:45;;;;;;;2.00;1.90;;;20.30;47.00;;;;;;10419409;28;20216;-21
2021/03/10 11:05:08;;;;;;;2.50;2.20;;;20.30;47.00;;;;;;10454400;28;20212;-21
2021/03/10 11:10:30;;;;;;;1.83;1.73;;;20.30;47.00;;;;;;10454722;28;20276;-21
2021/03/10 11:15:51;;;;;;;2.57;1.90;;;20.50;46.50;;;;;;10460818;28;20197;-21
2021/03/10 11:21:14;;;;;;;2.00;1.70;;;20.80;46.00;;;;;;10479116;28;20213;-22
2021/03/10 11:26:35;;;;;;;1.97;1.80;;;20.90;45.60;;;;;;10489500;28;20552;-22
2021/03/10 11:31:57;;;;;;;1.93;1.60;;;20.90;45.40;;;;;;10488739;28;20228;-21
2021/03/10 11:37:20;;;;;;;2.23;2.03;;;21.00;45.30;;;;;;10489788;28;20187;-22
2021/03/10 11:42:42;;;;;;;2.10;1.90;;;21.10;45.10;;;;;;10494156;28;20239;-22
2021/03/10 11:48:04;;;;;;;1.97;1.73;;;21.20;45.00;;;;;;10488143;28;20683;-21
2021/03/10 11:53:26;;;;;;;2.00;1.90;;;21.20;45.00;;;;;;10476799;28;20220;-21
2021/03/10 11:58:48;;;;;;;1.80;1.70;;;20.90;45.50;;;;;;10451678;28;20668;-21
2021/03/10 12:04:09;;;;;;;2.57;1.83;;;20.70;45.90;;;;;;10457693;28;20603;-22
2021/03/10 12:09:32;;;;;;;1.67;1.57;;;20.70;46.30;;;;;;10456263;28;20276;-22
2021/03/10 12:14:54;;;;;;;2.07;1.87;;;20.80;45.90;;;;;;10442279;28;20204;-22
2021/03/10 12:20:16;;;;;;;2.10;1.53;;;20.80;45.70;;;;;;10460568;28;20688;-21
2021/03/10 12:25:38;;;;;;;2.23;1.80;;;20.80;45.80;;;;;;10444889;28;20270;-21
2021/03/10 12:31:00;;;;;;;2.10;1.90;;;20.90;45.80;;;;;;10447577;28;20224;-21
2021/03/10 12:36:21;;;;;;;2.10;1.90;;;20.90;45.60;;;;;;10451913;28;20691;-21
2021/03/10 12:41:44;;;;;;;3.30;2.33;;;20.80;45.60;;;;;;10449104;28;20790;-20
2021/03/10 12:47:06;;;;;;;2.77;2.40;;;20.60;45.90;;;;;;10446512;28;20214;-21
2021/03/10 12:52:27;;;;;;;2.47;2.27;;;20.50;46.30;;;;;;10483917;28;20226;-22
2021/03/10 12:57:50;;;;;;;3.13;2.60;;;20.40;46.40;;;;;;10491467;28;20199;-21
2021/03/10 13:03:11;;;;;;;2.63;2.37;;;20.40;46.40;;;;;;10489791;28;20285;-21
2021/03/10 13:08:33;;;;;;;2.20;2.00;;;20.40;46.60;;;;;;10491190;28;20215;-22
2021/03/10 13:13:55;;;;;;;2.40;2.20;;;20.50;46.50;;;;;;10462181;28;20225;-21
2021/03/10 13:19:17;;;;;;;2.30;1.87;;;20.40;46.50;;;;;;10472314;28;20197;-21
2021/03/10 13:24:38;;;;;;;2.23;1.97;;;20.30;46.70;;;;;;10450287;28;20223;-21
2021/03/10 13:30:01;;;;;;;2.30;2.10;;;20.30;46.80;;;;;;10455638;28;20607;-21
2021/03/10 13:35:23;;;;;;;2.13;1.93;;;20.40;46.70;;;;;;10458466;28;20196;-21
2021/03/10 13:40:44;;;;;;;1.97;1.77;;;20.40;46.70;;;;;;10458044;28;20240;-21
2021/03/10 13:46:07;;;;;;;2.63;1.80;;;20.50;46.70;;;;;;10457904;28;20628;-21
2021/03/10 13:51:28;;;;;;;2.47;1.83;;;20.40;46.70;;;;;;10480901;28;20602;-21
2021/03/10 13:56:50;;;;;;;2.67;1.97;;;20.30;46.80;;;;;;10492047;28;20287;-21
2021/03/10 14:02:12;;;;;;;1.67;1.57;;;20.40;46.80;;;;;;10466751;28;20224;-20
2021/03/10 14:07:34;;;;;;;2.10;1.90;;;20.40;46.60;;;;;;10437594;28;20218;-21
2021/03/10 14:12:56;;;;;;;1.93;1.73;;;20.40;46.60;;;;;;10464131;28;20235;-20
2021/03/10 14:18:18;;;;;;;2.63;1.80;;;20.40;46.70;;;;;;10484150;28;20239;-21
2021/03/10 14:23:40;;;;;;;2.20;1.57;;;20.30;46.90;;;;;;10429117;28;20221;-22
2021/03/10 14:29:01;;;;;;;2.83;1.70;;;20.30;46.90;;;;;;10415402;28;20635;-20
2021/03/10 14:34:24;;;;;;;2.13;1.93;;;20.40;46.90;;;;;;10415006;28;20210;-20
2021/03/10 14:39:45;;;;;;;2.47;1.63;;;20.40;46.80;;;;;;10414948;28;20248;-20
2021/03/10 14:45:08;;;;;;;2.63;1.40;;;20.40;46.80;;;;;;10414895;28;20228;-20
2021/03/10 14:50:31;;;;;;;2.23;1.80;;;20.30;47.00;;;;;;10454726;28;20661;-20
2021/03/10 14:55:53;;;;;;;2.23;1.90;;;20.30;47.00;;;;;;10415889;28;20210;-20
2021/03/10 15:01:14;;;;;;;1.70;1.60;;;20.30;47.00;;;;;;10455225;28;20221;-20
2021/03/10 15:06:36;;;;;;;2.20;1.60;;;20.40;46.80;;;;;;10454147;28;20208;-21
2021/03/10 15:11:58;;;;;;;1.73;1.63;;;20.50;46.70;;;;;;10424904;28;20680;-20
2021/03/10 15:17:20;;;;;;;4.40;1.80;;;20.40;46.90;;;;;;10459010;28;20193;-22
2021/03/10 15:22:42;;;;;;;3.60;1.90;;;20.30;47.00;;;;;;10438479;28;20216;-21
2021/03/10 15:28:05;;;;;;;5.27;1.97;;;20.30;47.00;;;;;;10480079;28;20210;-21
2021/03/10 15:33:26;;;;;;;2.00;1.50;;;20.40;46.90;;;;;;10455608;28;20596;-22
2021/03/10 15:38:49;;;;;;;2.60;1.80;;;20.40;46.90;;;;;;10446019;28;20675;-20
2021/03/10 15:44:10;;;;;;;1.70;1.60;;;20.40;46.90;;;;;;10419537;28;20221;-21
2021/03/10 15:49:32;;;;;;;1.87;1.70;;;20.30;47.00;;;;;;10462768;28;20220;-20
2021/03/10 15:54:55;;;;;;;3.70;2.03;;;20.40;47.40;;;;;;10448148;28;20208;-19
2021/03/10 16:00:17;;;;;;;2.90;1.60;;;20.40;47.10;;;;;;10415923;28;20217;-21
2021/03/10 16:05:38;;;;;;;3.27;1.63;;;20.40;46.90;;;;;;10468665;28;20200;-20
2021/03/10 16:11:01;;;;;;;2.27;1.90;;;20.50;47.00;;;;;;10474674;28;20279;-22
2021/03/10 16:16:23;;;;;;;2.23;1.60;;;20.40;47.00;;;;;;10451014;28;20204;-20
2021/03/10 16:21:44;;;;;;;2.03;1.80;;;20.40;47.80;;;;;;10437445;28;20241;-22
2021/03/10 16:27:07;;;;;;;2.43;1.70;;;20.40;47.10;;;;;;10467116;28;20200;-22
2021/03/10 16:32:28;;;;;;;2.13;1.47;;;20.40;47.10;;;;;;10449108;28;20224;-20
2021/03/10 16:37:50;;;;;;;2.97;1.80;;;20.90;46.30;;;;;;10467587;28;20204;-22
2021/03/10 16:43:13;;;;;;;1.63;1.50;;;21.30;45.40;;;;;;10448596;28;20225;-21
2021/03/10 16:48:34;;;;;;;2.93;1.57;;;21.50;44.80;;;;;;10460437;28;20568;-23
2021/03/10 16:53:56;;;;;;;2.43;1.40;;;21.60;45.10;;;;;;10459405;28;20275;-20
2021/03/10 16:59:18;;;;;;;2.27;2.07;;;21.20;45.10;;;;;;10466057;28;20613;-20
2021/03/10 17:04:40;;;;;;;1.50;1.40;;;21.00;45.50;;;;;;10442012;28;20312;-21
2021/03/10 17:10:02;;;;;;;1.70;1.60;;;20.90;46.40;;;;;;10431125;28;20577;-20
2021/03/10 17:15:25;;;;;;;1.80;1.70;;;20.70;46.10;;;;;;10457644;28;20197;-21
2021/03/10 17:20:46;;;;;;;2.50;1.87;;;20.60;46.50;;;;;;10442857;28;20221;-21
2021/03/10 17:26:08;;;;;;;2.27;1.90;;;20.60;46.70;;;;;;10451131;28;20255;-21
2021/03/10 17:31:31;;;;;;;2.27;1.80;;;20.50;46.70;;;;;;10454422;28;20216;-22
2021/03/10 17:36:52;;;;;;;3.33;2.33;;;20.50;46.80;;;;;;10452467;28;20263;-22
2021/03/10 17:42:14;;;;;;;1.90;1.80;;;20.50;46.90;;;;;;10449227;28;20248;-22
2021/03/10 17:47:36;;;;;;;2.63;2.03;;;20.40;47.00;;;;;;10432651;28;20223;-22
2021/03/10 17:52:59;;;;;;;4.37;2.20;;;20.40;47.20;;;;;;10438327;28;20209;-19
2021/03/10 17:58:21;;;;;;;5.30;3.03;;;20.30;47.30;;;;;;10429407;28;20772;-22
2021/03/10 18:03:43;;;;;;;7.80;3.07;;;20.40;47.30;;;;;;10428817;28;20608;-22
2021/03/10 18:09:06;;;;;;;9.50;3.20;;;20.40;47.30;;;;;;10452258;28;20232;-21
2021/03/10 18:14:28;;;;;;;6.73;2.97;;;20.50;47.30;;;;;;10452084;28;20217;-21
2021/03/10 18:19:50;;;;;;;7.67;3.17;;;20.50;47.40;;;;;;10457094;28;20188;-21
2021/03/10 18:25:12;;;;;;;6.73;2.97;;;20.50;47.60;;;;;;10498688;28;20202;-21
2021/03/10 18:30:34;;;;;;;7.57;3.20;;;20.40;47.50;;;;;;10497525;28;20220;-22
2021/03/10 18:35:56;;;;;;;9.10;2.93;;;20.50;47.50;;;;;;10497766;28;20307;-21
2021/03/10 18:41:18;;;;;;;9.37;3.47;;;20.60;47.40;;;;;;10498445;28;20753;-22
2021/03/10 18:46:40;;;;;;;6.63;3.07;;;20.60;47.20;;;;;;10498092;28;20221;-21
2021/03/10 18:52:03;;;;;;;6.70;3.43;;;20.60;47.50;;;;;;10470225;28;20227;-21
2021/03/10 18:57:24;;;;;;;6.37;3.30;;;20.50;47.60;;;;;;10456694;28;20200;-22
2021/03/10 19:02:46;;;;;;;6.90;3.27;;;20.40;47.60;;;;;;10456338;28;20282;-22
2021/03/10 19:08:09;;;;;;;6.50;3.20;;;20.30;47.80;;;;;;10471912;28;20212;-22
2021/03/10 19:13:31;;;;;;;5.60;3.30;;;20.40;48.30;;;;;;10496069;28;20243;-21
2021/03/10 19:18:53;;;;;;;7.70;3.23;;;20.30;48.30;;;;;;10491842;28;20204;-21
2021/03/10 19:24:15;;;;;;;8.07;3.23;;;20.50;48.10;;;;;;10495033;28;20593;-22
2021/03/10 19:29:37;;;;;;;11.68;4.20;;;20.50;48.00;;;;;;10469614;28;20489;-22
2021/03/10 19:34:59;;;;;;;7.77;3.17;;;21.00;46.70;;;;;;10455730;28;20293;-20
2021/03/10 19:40:22;;;;;;;6.07;3.20;;;21.00;46.50;;;;;;10460780;28;20243;-21
2021/03/10 19:45:44;;;;;;;6.57;3.37;;;21.00;46.50;;;;;;10454422;28;20199;-21
2021/03/10 19:51:06;;;;;;;8.63;3.77;;;21.10;46.40;;;;;;10454562;28;20224;-22
2021/03/10 20:01:32;;;;;;;7.63;3.73;;;21.20;46.00;;;;;;10381635;28;20222;-22
2021/03/10 20:06:53;;;;;;;6.43;4.00;;;21.30;45.80;;;;;;10422767;28;20306;-21
2021/03/10 20:12:15;;;;;;;6.07;2.97;;;21.30;45.80;;;;;;10413189;28;20221;-21
2021/03/10 20:17:38;;;;;;;6.10;3.60;;;21.20;46.30;;;;;;10408844;28;20201;-21
2021/03/10 20:22:59;;;;;;;4.13;2.77;;;21.10;46.40;;;;;;10384763;28;20218;-21
2021/03/10 20:28:21;;;;;;;5.60;3.30;;;21.20;46.20;;;;;;10397329;28;20219;-23
2021/03/10 20:33:44;;;;;;;6.13;3.30;;;21.30;45.90;;;;;;10410252;28;20214;-22
2021/03/10 20:39:06;;;;;;;5.10;3.13;;;21.40;45.70;;;;;;10410112;28;20700;-23
2021/03/10 20:44:28;;;;;;;4.20;2.80;;;21.40;45.70;;;;;;10413078;28;20217;-21
2021/03/10 20:49:50;;;;;;;5.20;3.27;;;21.40;45.80;;;;;;10411656;28;20213;-22
2021/03/10 20:55:13;;;;;;;4.37;3.17;;;21.40;45.80;;;;;;10411612;28;20217;-23
2021/03/10 21:00:35;;;;;;;4.40;2.80;;;21.50;45.70;;;;;;10414749;28;20201;-21
2021/03/10 21:05:57;;;;;;;7.40;3.30;;;21.60;45.80;;;;;;10443513;28;20703;-21
2021/03/10 21:11:19;;;;;;;5.70;3.50;;;21.50;45.50;;;;;;10452593;28;20580;-23
2021/03/10 21:16:41;;;;;;;5.53;3.37;;;21.50;45.70;;;;;;10447259;28;20279;-21
2021/03/10 21:22:04;;;;;;;6.70;3.20;;;21.50;45.80;;;;;;10409959;28;20747;-24
2021/03/10 21:27:25;;;;;;;5.37;3.10;;;21.60;45.70;;;;;;10411421;28;20193;-22
2021/03/10 21:32:47;;;;;;;3.53;2.70;;;21.60;45.50;;;;;;10408872;28;20635;-21
2021/03/10 21:38:10;;;;;;;3.97;2.70;;;21.70;45.30;;;;;;10409227;28;20197;-21
2021/03/10 21:43:31;;;;;;;4.50;3.17;;;21.60;45.30;;;;;;10418463;28;20700;-22
2021/03/10 21:48:53;;;;;;;3.57;2.83;;;21.60;45.50;;;;;;10410870;28;20209;-23
2021/03/10 21:54:16;;;;;;;4.73;2.93;;;21.50;45.80;;;;;;10418385;28;20225;-22
2021/03/10 21:59:37;;;;;;;4.67;2.80;;;21.30;46.20;;;;;;10397010;28;20207;-22
2021/03/10 22:04:59;;;;;;;5.13;2.90;;;21.00;46.60;;;;;;10405224;28;20224;-22
2021/03/10 22:10:23;;;;;;;3.50;2.90;;;20.80;47.10;;;;;;10400922;28;20214;-22
2021/03/10 22:15:44;;;;;;;4.17;2.87;;;20.70;47.40;;;;;;10425404;28;20245;-21
2021/03/10 22:21:06;;;;;;;2.80;2.47;;;20.60;47.50;;;;;;10455749;28;20189;-23
2021/03/10 22:26:28;;;;;;;3.93;3.27;;;20.60;47.50;;;;;;10451946;28;20213;-21
2021/03/10 22:31:51;;;;;;;4.47;2.93;;;20.50;47.40;;;;;;10417627;28;20229;-22
2021/03/10 22:37:12;;;;;;;4.27;3.43;;;20.50;47.60;;;;;;10418006;28;20193;-23
2021/03/10 22:42:35;;;;;;;5.03;3.10;;;20.40;47.70;;;;;;10424612;28;20224;-21
2021/03/10 22:47:57;;;;;;;4.67;3.30;;;20.40;47.80;;;;;;10417240;28;20213;-24
2021/03/10 22:53:18;;;;;;;3.97;3.13;;;20.40;47.70;;;;;;10417689;28;20213;-21
2021/03/10 22:58:41;;;;;;;3.90;3.13;;;20.40;47.70;;;;;;10416763;28;20210;-22
2021/03/10 23:04:02;;;;;;;6.70;3.17;;;20.30;47.90;;;;;;10416832;28;20225;-22
2021/03/10 23:09:24;;;;;;;3.43;2.70;;;20.30;48.00;;;;;;10415307;28;20275;-23
2021/03/10 23:14:46;;;;;;;4.00;2.87;;;20.30;48.00;;;;;;10403386;28;20213;-22
2021/03/10 23:20:08;;;;;;;3.83;2.50;;;20.30;47.90;;;;;;10415130;28;20194;-22
2021/03/10 23:25:33;;;;;;;4.47;2.73;;;20.30;47.90;;;;;;10416007;28;20217;-22
2021/03/10 23:30:58;;;;;;;3.93;3.00;;;20.20;47.90;;;;;;10398145;28;20217;-22
2021/03/10 23:36:20;;;;;;;3.30;2.83;;;20.20;48.10;;;;;;10407586;28;20741;-23
2021/03/10 23:41:42;;;;;;;3.47;2.87;;;20.20;48.10;;;;;;10419111;28;20255;-23
2021/03/10 23:47:04;;;;;;;5.43;3.40;;;20.20;48.00;;;;;;10404219;28;20213;-23
2021/03/10 23:52:26;;;;;;;3.37;2.63;;;20.20;48.00;;;;;;10371700;28;20226;-20
2021/03/10 23:57:47;;;;;;;3.97;2.90;;;20.10;48.10;;;;;;10373305;28;20201;-23
